Time;durP1;ratioP1;P1;durP2;ratioP2;P2;SDS_P1;SDS_P2;PMS_P1;PMS_P2;Temp;Humidity;BMP_temperature;BMP_pressure;BME280_temperature;BME280_humidity;BME280_pressure;Samples;Min_cycle;Max_cycle;Signal;HPM_P1;HPM_P2
2023/01/10 00:00:36;;;;;;;6.10;1.73;;;;;;;4.60;88.45;101137.81;5070939;28;20020;-82
2023/01/10 00:03:07;;;;;;;4.27;1.50;;;;;;;4.56;88.40;101141.22;5072086;28;20399;-82
2023/01/10 00:05:32;;;;;;;8.75;2.08;;;;;;;4.50;88.15;101133.44;5052630;28;20028;-82
2023/01/10 00:07:58;;;;;;;4.97;1.70;;;;;;;4.47;88.69;101141.16;5047332;28;20097;-82
2023/01/10 00:10:23;;;;;;;5.87;1.73;;;;;;;4.44;88.12;101152.31;5070755;28;20023;-82
2023/01/10 00:15:33;;;;;;;5.43;1.77;;;;;;;4.42;88.57;101166.06;5069505;28;20238;-82
2023/01/10 00:17:59;;;;;;;6.37;1.47;;;;;;;4.43;88.66;101170.38;5072503;28;20025;-82
2023/01/10 00:20:24;;;;;;;5.73;1.90;;;;;;;4.45;88.26;101163.47;5071970;28;21068;-82
2023/01/10 00:22:49;;;;;;;6.70;2.07;;;;;;;4.46;88.23;101170.34;5068813;28;20020;-82
2023/01/10 00:25:18;;;;;;;6.97;1.80;;;;;;;4.48;88.35;101181.53;5067615;28;20451;-81
2023/01/10 00:27:44;;;;;;;6.88;2.10;;;;;;;4.48;88.07;101184.09;5050161;28;20024;-83
2023/01/10 00:30:13;;;;;;;6.25;1.98;;;;;;;4.46;88.37;101189.25;5066957;28;20044;-82
2023/01/10 00:32:43;;;;;;;8.15;2.15;;;;;;;4.43;88.55;101191.81;5067895;28;20032;-82
2023/01/10 00:35:09;;;;;;;5.95;1.65;;;;;;;4.39;87.95;101195.22;5068362;28;20024;-82
2023/01/10 00:37:34;;;;;;;5.67;1.73;;;;;;;4.36;88.01;101201.22;5049588;28;20017;-82
2023/01/10 00:40:00;;;;;;;4.67;1.80;;;;;;;4.34;87.96;101202.94;5067575;28;20048;-82
2023/01/10 00:45:10;;;;;;;4.13;1.60;;;;;;;4.28;88.21;101213.19;5069382;28;20116;-82
2023/01/10 00:47:36;;;;;;;8.13;1.90;;;;;;;4.26;88.49;101217.50;5049355;28;20016;-82
2023/01/10 00:50:04;;;;;;;9.13;2.20;;;;;;;4.24;88.15;101214.03;5071161;28;20086;-82
2023/01/10 00:52:30;;;;;;;5.30;2.17;;;;;;;4.21;88.25;101219.16;5053816;28;20494;-82
2023/01/10 00:54:55;;;;;;;5.20;1.92;;;;;;;4.19;87.92;101223.44;5056248;28;20111;-82
2023/01/10 00:57:20;;;;;;;9.07;2.43;;;;;;;4.17;88.20;101217.41;5071870;28;20476;-81
2023/01/10 00:59:46;;;;;;;7.83;1.80;;;;;;;4.16;87.95;101224.28;5067600;28;20026;-82
2023/01/10 01:02:11;;;;;;;7.43;2.20;;;;;;;4.13;87.91;101229.41;5050658;28;20031;-82
2023/01/10 01:04:36;;;;;;;7.50;2.20;;;;;;;4.12;87.76;101231.97;5067707;28;20131;-82
2023/01/10 01:07:02;;;;;;;4.47;1.80;;;;;;;4.08;87.95;101231.09;5066494;28;20368;-82
2023/01/10 01:09:28;;;;;;;6.03;1.97;;;;;;;4.06;88.23;101236.25;5067443;28;20021;-82
2023/01/10 01:11:55;;;;;;;7.30;1.90;;;;;;;4.02;88.16;101242.22;5066724;28;20111;-82
2023/01/10 01:14:20;;;;;;;7.80;2.20;;;;;;;3.99;88.26;101239.59;5065468;28;20024;-82
2023/01/10 01:16:45;;;;;;;5.20;1.60;;;;;;;3.98;88.08;101245.59;5048536;28;20099;-81
2023/01/10 01:19:11;;;;;;;6.47;1.67;;;;;;;3.99;88.29;101249.91;5066701;28;20020;-82
2023/01/10 01:21:36;;;;;;;7.17;1.80;;;;;;;3.98;88.37;101252.47;5065696;28;20020;-82
2023/01/10 01:24:02;;;;;;;6.00;2.30;;;;;;;4.00;88.09;101253.34;5067082;28;20471;-82
2023/01/10 01:26:27;;;;;;;5.83;2.03;;;;;;;4.00;88.48;101258.50;5048947;28;20165;-81
2023/01/10 01:28:52;;;;;;;7.80;2.07;;;;;;;4.00;87.98;101256.78;5064777;28;20028;-82
2023/01/10 01:31:18;;;;;;;6.43;2.10;;;;;;;4.00;88.22;101261.06;5065054;28;20021;-82
2023/01/10 01:33:43;;;;;;;8.47;2.50;;;;;;;4.02;88.48;101273.09;5069645;28;20047;-82
2023/01/10 01:36:10;;;;;;;6.40;2.30;;;;;;;4.04;88.32;101278.25;5065887;28;20552;-82
2023/01/10 01:38:36;;;;;;;8.90;2.33;;;;;;;4.05;88.19;101285.13;5066870;28;20052;-82
2023/01/10 01:41:01;;;;;;;8.60;2.13;;;;;;;4.05;88.36;101275.72;5064651;28;20032;-82
2023/01/10 01:43:30;;;;;;;5.83;2.17;;;;;;;4.06;88.22;101274.84;5065400;28;20036;-82
2023/01/10 01:45:59;;;;;;;7.07;2.03;;;;;;;4.07;88.18;101275.72;5047886;28;20024;-82
2023/01/10 01:48:36;;;;;;;7.90;2.27;;;;;;;4.07;88.02;101273.13;5064424;28;20044;-82
2023/01/10 01:51:10;;;;;;;7.80;2.00;;;;;;;4.06;88.27;101290.31;5070789;28;20032;-82
2023/01/10 01:53:48;;;;;;;6.47;2.00;;;;;;;4.08;88.47;101298.91;5067067;28;20031;-82
2023/01/10 01:56:21;;;;;;;8.73;2.40;;;;;;;4.10;88.22;101307.47;5063911;28;20020;-82
2023/01/10 01:58:56;;;;;;;12.50;2.83;;;;;;;4.13;88.50;101316.97;5064607;28;20499;-81
2023/01/10 02:01:21;;;;;;;8.80;2.53;;;;;;;4.16;88.64;101310.97;5066055;28;20471;-82
2023/01/10 02:03:55;;;;;;;11.37;2.97;;;;;;;4.19;88.61;101311.84;5065513;28;20032;-82
2023/01/10 02:06:23;;;;;;;10.40;3.10;;;;;;;4.20;88.82;101307.56;5061664;28;20032;-82
2023/01/10 02:08:57;;;;;;;12.87;4.03;;;;;;;4.19;88.87;101311.00;5064975;28;20039;-82
2023/01/10 02:11:22;;;;;;;14.60;4.20;;;;;;;4.19;88.91;101316.16;5041119;28;20067;-82
2023/01/10 02:13:48;;;;;;;11.13;3.80;;;;;;;4.18;88.89;101315.31;5069828;28;20056;-82
2023/01/10 02:16:14;;;;;;;11.00;3.80;;;;;;;4.17;89.10;101312.69;5065355;28;20035;-82
2023/01/10 02:18:41;;;;;;;13.23;4.03;;;;;;;4.17;89.32;101325.56;5065564;28;20028;-82
2023/01/10 02:21:09;;;;;;;10.70;4.30;;;;;;;4.17;89.59;101315.28;5064153;28;20017;-82
2023/01/10 02:24:06;;;;;;;10.03;4.20;;;;;;;4.16;89.44;101309.28;5068238;28;20020;-82
2023/01/10 02:26:56;;;;;;;10.87;4.47;;;;;;;4.14;89.27;101303.25;5063877;28;20109;-82
2023/01/10 02:29:38;;;;;;;9.33;3.67;;;;;;;4.18;89.34;101311.84;5064556;28;20056;-83
2023/01/10 02:32:13;;;;;;;10.15;3.47;;;;;;;4.20;89.40;101323.03;5064443;28;20071;-82
2023/01/10 02:34:58;;;;;;;10.43;3.70;;;;;;;4.20;90.08;101312.72;5063510;28;20017;-82
2023/01/10 02:37:32;;;;;;;9.67;3.43;;;;;;;4.20;89.67;101312.72;5064817;28;20028;-82
2023/01/10 02:40:02;;;;;;;9.77;2.77;;;;;;;4.25;89.98;101318.78;5063711;28;20025;-82
2023/01/10 02:43:18;;;;;;;9.40;2.73;;;;;;;4.25;89.92;101331.66;5063167;28;20020;-82
2023/01/10 02:45:49;;;;;;;8.07;2.80;;;;;;;4.27;90.10;101324.78;5028483;28;20064;-82
2023/01/10 02:48:16;;;;;;;13.70;3.20;;;;;;;4.26;90.08;101320.50;5063756;28;20024;-82
2023/01/10 02:50:49;;;;;;;10.97;2.97;;;;;;;4.27;90.39;101323.94;5063429;28;20032;-82
2023/01/10 02:53:23;;;;;;;11.13;2.90;;;;;;;4.27;90.30;101321.38;5067664;28;20020;-82
2023/01/10 02:56:17;;;;;;;9.90;2.60;;;;;;;4.28;90.56;101320.50;5063418;28;20139;-82
2023/01/10 02:58:48;;;;;;;7.87;2.50;;;;;;;4.25;90.29;101319.63;5062705;28;20077;-82
2023/01/10 03:01:25;;;;;;;10.75;2.70;;;;;;;4.25;90.67;101331.66;5064526;28;20072;-82
2023/01/10 03:03:53;;;;;;;6.53;2.33;;;;;;;4.23;90.52;101334.22;5063770;28;20045;-82
2023/01/10 03:06:34;;;;;;;7.67;2.30;;;;;;;4.20;90.56;101339.31;5063234;28;20181;-82
2023/01/10 03:09:23;;;;;;;8.95;2.22;;;;;;;4.16;90.31;101341.88;5067817;28;20108;-82
2023/01/10 03:11:53;;;;;;;6.90;2.37;;;;;;;4.13;90.44;101347.88;5048125;28;20090;-82
2023/01/10 03:14:25;;;;;;;8.93;2.37;;;;;;;4.10;90.20;101351.25;5051485;28;20029;-81
2023/01/10 03:16:59;;;;;;;9.63;2.20;;;;;;;4.09;90.35;101352.13;5066746;28;20028;-82
2023/01/10 03:19:30;;;;;;;9.37;2.33;;;;;;;4.07;90.03;101364.13;5056567;28;20411;-82
2023/01/10 03:21:58;;;;;;;6.13;2.00;;;;;;;4.06;90.16;101366.66;5066530;28;20053;-82
2023/01/10 03:24:30;;;;;;;9.67;2.20;;;;;;;4.05;90.12;101373.53;5064718;28;20066;-82
2023/01/10 03:27:29;;;;;;;8.90;2.10;;;;;;;4.01;90.21;101379.50;5064561;28;20146;-82
2023/01/10 03:30:10;;;;;;;7.37;1.90;;;;;;;4.02;90.40;101388.06;4959017;28;20652;-82
2023/01/10 03:32:35;;;;;;;11.13;2.20;;;;;;;4.00;90.11;101395.78;5063023;28;20032;-82
2023/01/10 03:35:02;;;;;;;9.17;2.27;;;;;;;4.01;90.04;101401.81;5063735;28;20039;-82
2023/01/10 03:37:35;;;;;;;6.93;2.17;;;;;;;4.01;90.36;101399.25;5066132;28;20380;-82
2023/01/10 03:40:29;;;;;;;7.33;2.30;;;;;;;4.03;90.45;101400.97;5060431;28;20469;-82
2023/01/10 03:46:01;;;;;;;10.67;2.17;;;;;;;4.07;90.26;101414.75;5061786;28;20117;-82
2023/01/10 03:48:31;;;;;;;9.43;2.20;;;;;;;4.05;90.34;101412.16;5064122;28;20563;-82
2023/01/10 03:51:01;;;;;;;9.17;1.83;;;;;;;4.07;90.00;101415.63;5061004;28;20552;-82
2023/01/10 03:53:26;;;;;;;7.30;1.83;;;;;;;4.06;90.16;101419.03;5064373;28;20033;-82
2023/01/10 03:55:52;;;;;;;7.47;2.00;;;;;;;4.07;90.39;101420.78;5061779;28;20033;-82
2023/01/10 03:58:20;;;;;;;10.07;2.10;;;;;;;4.08;90.06;101426.78;5062675;28;20121;-82
2023/01/10 04:00:46;;;;;;;6.73;1.93;;;;;;;4.07;90.04;101432.78;5050899;28;20017;-82
2023/01/10 04:03:12;;;;;;;7.00;1.87;;;;;;;4.06;89.75;101434.50;5069518;28;20169;-82
2023/01/10 04:05:37;;;;;;;7.27;1.90;;;;;;;4.05;89.85;101437.91;5068263;28;20028;-82
2023/01/10 04:08:02;;;;;;;8.10;1.80;;;;;;;4.03;89.62;101441.31;5068466;28;20028;-81
2023/01/10 04:10:28;;;;;;;8.73;1.90;;;;;;;4.03;89.45;101442.19;5066499;28;20032;-82
2023/01/10 04:12:54;;;;;;;9.10;2.37;;;;;;;4.02;89.62;101443.03;5071558;28;20085;-82
2023/01/10 04:15:19;;;;;;;6.83;1.57;;;;;;;4.03;89.90;101444.75;5069768;28;20467;-81
2023/01/10 04:17:47;;;;;;;9.30;1.80;;;;;;;3.99;89.61;101436.97;5063638;28;20036;-82
2023/01/10 04:20:12;;;;;;;8.43;1.60;;;;;;;3.99;89.80;101448.13;5067896;28;20082;-82
2023/01/10 04:22:37;;;;;;;10.90;2.03;;;;;;;3.97;89.79;101441.25;5069970;28;20024;-82
2023/01/10 04:25:03;;;;;;;8.10;2.13;;;;;;;3.94;89.61;101447.22;5073142;28;20028;-82
2023/01/10 04:27:28;;;;;;;9.03;2.60;;;;;;;3.91;89.61;101447.19;5068176;28;20012;-82
2023/01/10 04:29:53;;;;;;;8.50;1.80;;;;;;;3.89;89.67;101451.47;5054215;28;20044;-82
2023/01/10 04:32:19;;;;;;;6.70;1.87;;;;;;;3.88;89.88;101452.31;5072322;28;20021;-82
2023/01/10 04:34:44;;;;;;;5.37;1.90;;;;;;;3.87;89.88;101458.28;5068902;28;20085;-82
2023/01/10 04:37:09;;;;;;;9.80;2.07;;;;;;;3.85;90.03;101465.13;5064098;28;20509;-81
2023/01/10 04:39:34;;;;;;;7.03;2.00;;;;;;;3.82;90.11;101459.94;5067398;28;20074;-81
2023/01/10 04:42:00;;;;;;;6.73;1.90;;;;;;;3.80;89.82;101453.06;5071201;28;20472;-82
2023/01/10 04:44:25;;;;;;;9.20;2.00;;;;;;;3.79;90.25;101459.06;5054129;28;20073;-82
2023/01/10 04:46:50;;;;;;;8.30;1.93;;;;;;;3.78;90.26;101457.31;5070583;28;20031;-82
2023/01/10 04:49:15;;;;;;;9.30;1.90;;;;;;;3.77;90.12;101458.16;5064895;28;20395;-82
2023/01/10 04:51:41;;;;;;;8.73;1.97;;;;;;;3.78;90.31;101454.75;5069912;28;20032;-82
2023/01/10 04:54:06;;;;;;;11.13;2.00;;;;;;;3.76;89.72;101451.28;5074020;28;20025;-82
2023/01/10 04:56:31;;;;;;;9.03;1.70;;;;;;;3.77;90.00;101462.47;5067065;28;20089;-82
2023/01/10 04:58:57;;;;;;;7.03;1.90;;;;;;;3.74;89.83;101460.72;5070852;28;20104;-82
2023/01/10 05:01:24;;;;;;;7.20;1.67;;;;;;;3.75;89.90;101477.03;5073437;28;20031;-82
2023/01/10 05:03:51;;;;;;;9.40;1.67;;;;;;;3.74;90.45;101472.72;5072802;28;20048;-82
2023/01/10 05:06:17;;;;;;;7.20;1.57;;;;;;;3.71;90.07;101473.56;5073285;28;20048;-82
2023/01/10 05:08:43;;;;;;;9.23;1.50;;;;;;;3.71;90.30;101477.81;5073418;28;20039;-82
2023/01/10 05:11:09;;;;;;;11.30;1.93;;;;;;;3.69;90.07;101474.34;5072397;28;20032;-82
2023/01/10 05:13:34;;;;;;;7.83;1.73;;;;;;;3.67;90.04;101465.78;5072737;28;20028;-81
2023/01/10 05:16:00;;;;;;;5.87;1.50;;;;;;;3.65;90.34;101468.31;5070653;28;20112;-81
2023/01/10 05:18:26;;;;;;;10.17;2.20;;;;;;;3.63;90.34;101475.16;5065607;28;20032;-82
2023/01/10 05:20:51;;;;;;;8.03;1.60;;;;;;;3.61;90.21;101482.84;5072552;28;20073;-82
2023/01/10 05:23:17;;;;;;;7.53;1.77;;;;;;;3.59;90.30;101489.69;5054386;28;20028;-82
2023/01/10 05:25:43;;;;;;;11.20;1.93;;;;;;;3.61;90.23;101497.41;5070968;28;20025;-82
2023/01/10 05:28:08;;;;;;;9.27;1.93;;;;;;;3.60;90.66;101504.28;5073266;28;20029;-82
2023/01/10 05:30:34;;;;;;;11.17;2.00;;;;;;;3.62;90.34;101514.59;5042633;28;20033;-82
2023/01/10 05:32:59;;;;;;;6.70;1.60;;;;;;;3.64;90.52;101523.19;5071476;28;20033;-82
2023/01/10 05:35:25;;;;;;;9.07;2.17;;;;;;;3.65;90.29;101522.34;5074056;28;20060;-82
2023/01/10 05:37:51;;;;;;;10.20;1.67;;;;;;;3.66;90.26;101507.78;5071484;28;20036;-82
2023/01/10 05:40:16;;;;;;;9.20;1.90;;;;;;;3.66;90.55;101515.50;5072492;28;20028;-82
2023/01/10 05:42:41;;;;;;;10.17;2.03;;;;;;;3.68;90.35;101534.38;5073139;28;20032;-82
2023/01/10 05:45:07;;;;;;;10.07;1.70;;;;;;;3.71;90.26;101534.44;5071942;28;20090;-82
2023/01/10 05:47:33;;;;;;;11.73;2.20;;;;;;;3.71;90.32;101540.47;5071271;28;20029;-81
2023/01/10 05:49:58;;;;;;;14.37;2.07;;;;;;;3.75;90.27;101547.38;5070288;28;20028;-82
2023/01/10 05:52:23;;;;;;;8.03;2.13;;;;;;;3.78;90.46;101546.56;5069386;28;20089;-82
2023/01/10 05:54:48;;;;;;;9.57;1.90;;;;;;;3.84;90.23;101543.19;5065283;28;20032;-82
2023/01/10 05:57:14;;;;;;;10.00;1.83;;;;;;;3.87;90.83;101548.38;5068254;28;20397;-82
2023/01/10 05:59:39;;;;;;;11.90;1.90;;;;;;;3.88;90.35;101543.25;5073696;28;20036;-82
2023/01/10 06:02:04;;;;;;;9.47;2.17;;;;;;;3.91;90.60;101547.59;5067410;28;20032;-82
2023/01/10 06:04:30;;;;;;;15.67;2.87;;;;;;;3.94;90.39;101550.19;5063500;28;20044;-82
2023/01/10 06:06:55;;;;;;;11.67;2.50;;;;;;;3.92;89.97;101547.59;5065454;28;20030;-82
2023/01/10 06:09:20;;;;;;;15.67;2.40;;;;;;;3.95;90.40;101560.53;5064182;28;20094;-81
2023/01/10 06:11:45;;;;;;;10.50;1.80;;;;;;;3.97;90.33;101551.94;5068019;28;20089;-81
2023/01/10 06:14:11;;;;;;;10.97;1.87;;;;;;;3.97;90.17;101552.81;5049615;28;22728;-81
2023/01/10 06:16:36;;;;;;;11.57;1.90;;;;;;;3.97;89.78;101557.94;5064919;28;20024;-82
2023/01/10 06:19:01;;;;;;;11.77;2.07;;;;;;;3.99;90.12;101556.25;5064554;28;20032;-82
2023/01/10 06:21:27;;;;;;;9.63;1.93;;;;;;;3.97;89.86;101550.22;5067813;28;20028;-82
2023/01/10 06:23:52;;;;;;;9.63;2.13;;;;;;;3.97;90.05;101555.38;5065532;28;20028;-82
2023/01/10 06:26:17;;;;;;;11.47;1.83;;;;;;;3.96;90.12;101561.38;5064877;28;20028;-82
2023/01/10 06:28:43;;;;;;;12.43;1.70;;;;;;;3.97;89.88;101565.66;5064344;28;20145;-82
2023/01/10 06:31:08;;;;;;;12.30;2.43;;;;;;;3.96;90.24;101566.50;5063806;28;20505;-82
2023/01/10 06:33:34;;;;;;;11.15;1.70;;;;;;;3.99;90.02;101570.88;5065808;28;20058;-82
2023/01/10 06:36:00;;;;;;;9.83;1.87;;;;;;;3.98;89.75;101564.81;5063627;28;20036;-82
2023/01/10 06:38:25;;;;;;;17.47;3.83;;;;;;;4.01;89.65;101574.31;5061502;28;20039;-82
2023/01/10 06:40:50;;;;;;;8.53;2.00;;;;;;;4.01;89.95;101580.31;5063741;28;20025;-81
2023/01/10 06:43:16;;;;;;;10.03;1.80;;;;;;;4.02;89.54;101576.03;5067136;28;20035;-82
2023/01/10 06:45:41;;;;;;;9.73;2.10;;;;;;;4.04;89.62;101585.53;5064792;28;20040;-82
2023/01/10 06:48:06;;;;;;;9.80;1.87;;;;;;;4.02;89.74;101579.47;5063470;28;20087;-82
2023/01/10 06:50:31;;;;;;;10.10;1.80;;;;;;;4.01;89.55;101584.63;5067864;28;20059;-81
2023/01/10 06:53:02;;;;;;;11.70;1.83;;;;;;;4.01;89.75;101589.78;5067466;28;20491;-82
2023/01/10 06:55:28;;;;;;;11.13;2.00;;;;;;;3.99;89.44;101597.47;5070106;28;20029;-81
2023/01/10 06:58:03;;;;;;;10.27;1.87;;;;;;;3.98;89.42;101606.03;5063494;28;20035;-82
2023/01/10 07:00:30;;;;;;;8.30;1.70;;;;;;;3.96;89.55;101605.13;5062405;28;20073;-82
2023/01/10 07:03:00;;;;;;;9.00;2.30;;;;;;;3.91;88.99;101599.94;5063938;28;20498;-82
2023/01/10 07:05:25;;;;;;;8.60;1.90;;;;;;;3.89;88.95;101601.63;5064490;28;20028;-81
2023/01/10 07:07:51;;;;;;;12.17;1.70;;;;;;;3.85;89.19;101611.84;5064562;28;20082;-82
2023/01/10 07:10:16;;;;;;;10.00;1.77;;;;;;;3.83;89.06;101626.41;5064052;28;20032;-81
2023/01/10 07:12:41;;;;;;;12.00;1.60;;;;;;;3.79;89.10;101636.63;5061677;28;20036;-81
2023/01/10 07:15:07;;;;;;;15.87;2.30;;;;;;;3.76;89.35;101636.59;5065581;28;20028;-82
2023/01/10 07:17:32;;;;;;;11.57;2.63;;;;;;;3.76;88.75;101641.75;5063602;28;20028;-81
2023/01/10 07:19:58;;;;;;;10.13;1.97;;;;;;;3.73;88.93;101652.00;5064574;28;20032;-81
2023/01/10 07:22:23;;;;;;;11.80;2.20;;;;;;;3.68;88.71;101643.34;5063456;28;20490;-82
2023/01/10 07:24:48;;;;;;;14.40;2.30;;;;;;;3.66;89.21;101645.03;5064749;28;20488;-81
2023/01/10 07:27:14;;;;;;;10.10;1.83;;;;;;;3.66;88.97;101655.31;5064164;28;20061;-81
2023/01/10 07:29:39;;;;;;;10.03;1.80;;;;;;;3.66;89.28;101657.88;5063628;28;20337;-81
2023/01/10 07:32:04;;;;;;;11.17;1.90;;;;;;;3.67;88.96;101662.19;5064060;28;20108;-81
2023/01/10 07:34:30;;;;;;;12.77;1.93;;;;;;;3.70;88.98;101679.38;5069183;28;20392;-82
2023/01/10 07:36:55;;;;;;;12.37;1.97;;;;;;;3.73;89.08;101675.19;5063699;28;20046;-82
2023/01/10 07:39:20;;;;;;;11.30;1.97;;;;;;;3.74;88.76;101684.63;5067353;28;20039;-82
2023/01/10 07:41:46;;;;;;;12.93;1.90;;;;;;;3.77;88.91;101697.53;5067756;28;20031;-82
2023/01/10 07:44:12;;;;;;;12.53;1.90;;;;;;;3.78;88.82;101696.69;5072611;28;20468;-81
2023/01/10 07:46:37;;;;;;;14.53;2.10;;;;;;;3.80;89.02;101697.56;5069328;28;20031;-82
2023/01/10 07:49:02;;;;;;;12.77;2.97;;;;;;;3.80;88.65;101699.31;5057410;28;20109;-82
2023/01/10 07:51:27;;;;;;;10.40;1.77;;;;;;;3.78;88.47;101691.53;5079612;28;20038;-82
2023/01/10 07:53:53;;;;;;;10.27;2.00;;;;;;;3.84;88.63;101705.34;5076114;28;20374;-82
2023/01/10 07:56:18;;;;;;;13.53;1.80;;;;;;;3.82;88.61;101692.47;5076047;28;20036;-81
2023/01/10 07:58:45;;;;;;;15.07;2.97;;;;;;;3.85;88.88;101696.78;5072830;28;20112;-81
2023/01/10 08:01:10;;;;;;;13.67;2.63;;;;;;;3.87;88.85;101701.09;5050277;28;20460;-81
2023/01/10 08:03:35;;;;;;;14.87;2.83;;;;;;;3.88;88.56;101694.28;5067347;28;20032;-81
2023/01/10 08:06:04;;;;;;;11.23;1.87;;;;;;;3.92;88.54;101708.94;5066668;28;20072;-82
2023/01/10 08:08:30;;;;;;;15.23;2.00;;;;;;;3.94;88.44;101709.78;5066948;28;20024;-81
2023/01/10 08:10:58;;;;;;;13.53;2.00;;;;;;;3.97;88.20;101707.28;5066170;28;20025;-82
2023/01/10 08:13:23;;;;;;;11.50;2.10;;;;;;;3.96;88.47;101705.53;5067163;28;20021;-81
2023/01/10 08:15:50;;;;;;;12.83;2.10;;;;;;;3.97;88.21;101707.28;5066652;28;20033;-81
2023/01/10 08:18:15;;;;;;;16.17;2.33;;;;;;;3.98;87.87;101719.31;5054399;28;20415;-81
2023/01/10 08:20:41;;;;;;;11.27;2.20;;;;;;;4.01;88.42;101703.91;5066824;28;20026;-82
2023/01/10 08:23:06;;;;;;;14.37;2.23;;;;;;;4.02;88.41;101705.66;5067479;28;20047;-82
2023/01/10 08:25:31;;;;;;;10.30;1.97;;;;;;;4.06;88.03;101715.16;5066966;28;20032;-82
2023/01/10 08:27:56;;;;;;;10.53;1.90;;;;;;;4.08;87.68;101710.91;5067098;28;20040;-81
2023/01/10 08:30:22;;;;;;;13.37;2.40;;;;;;;4.09;88.02;101710.06;5067401;28;20036;-81
2023/01/10 08:32:47;;;;;;;11.53;2.00;;;;;;;4.14;87.72;101709.25;5066458;28;20029;-82
2023/01/10 08:35:13;;;;;;;12.90;2.33;;;;;;;4.16;87.11;101715.28;5065856;28;20078;-81
2023/01/10 08:37:38;;;;;;;11.33;2.60;;;;;;;4.15;87.49;101716.13;5062674;28;20193;-82
2023/01/10 08:40:04;;;;;;;15.23;2.40;;;;;;;4.14;87.28;101714.38;5066401;28;20031;-82
2023/01/10 08:42:29;;;;;;;11.13;2.03;;;;;;;4.12;87.12;101716.06;5065276;28;20074;-82
2023/01/10 08:44:54;;;;;;;15.03;1.97;;;;;;;4.13;87.25;101713.53;5066939;28;20160;-82
2023/01/10 08:47:20;;;;;;;11.10;2.13;;;;;;;4.13;87.26;101710.06;5064679;28;20486;-82
2023/01/10 08:49:48;;;;;;;16.97;2.23;;;;;;;4.15;87.11;101710.97;5066622;28;20043;-82
2023/01/10 08:52:14;;;;;;;12.63;2.10;;;;;;;4.18;87.46;101717.06;5048616;28;20496;-82
2023/01/10 08:54:39;;;;;;;10.83;2.00;;;;;;;4.17;87.25;101714.44;5063297;28;20043;-81
2023/01/10 08:57:04;;;;;;;12.13;1.90;;;;;;;4.19;86.95;101712.75;5064935;28;20033;-81
2023/01/10 08:59:30;;;;;;;9.50;1.87;;;;;;;4.17;87.25;101709.28;5063838;28;20041;-82
2023/01/10 09:01:57;;;;;;;11.37;2.47;;;;;;;4.18;87.00;101708.44;5067776;28;20040;-82
2023/01/10 09:04:23;;;;;;;15.67;2.57;;;;;;;4.20;86.87;101709.34;5047991;28;20040;-82
2023/01/10 09:06:48;;;;;;;10.70;2.13;;;;;;;4.22;86.93;101702.50;5067038;28;20040;-81
2023/01/10 09:09:13;;;;;;;8.50;2.13;;;;;;;4.24;87.06;101705.97;5070236;28;20475;-81
2023/01/10 09:11:39;;;;;;;12.23;1.80;;;;;;;4.23;86.78;101697.38;5065424;28;20094;-81
2023/01/10 09:14:06;;;;;;;16.30;2.20;;;;;;;4.29;86.71;101701.72;5067119;28;20184;-81
2023/01/10 09:16:31;;;;;;;10.97;1.67;;;;;;;4.30;86.36;101700.03;5063673;28;20024;-81
2023/01/10 09:18:56;;;;;;;11.17;2.60;;;;;;;4.33;86.38;101689.78;5067957;28;20028;-81
2023/01/10 09:21:22;;;;;;;10.03;2.00;;;;;;;4.35;86.50;101695.81;5062292;28;21354;-81
2023/01/10 09:23:47;;;;;;;8.73;1.97;;;;;;;4.36;86.85;101690.69;5065341;28;20050;-81
2023/01/10 09:26:12;;;;;;;13.20;2.43;;;;;;;4.37;86.67;101692.41;5064198;28;20028;-82
2023/01/10 09:28:38;;;;;;;13.73;2.20;;;;;;;4.39;86.49;101690.72;5066727;28;20138;-81
2023/01/10 09:31:04;;;;;;;16.87;2.47;;;;;;;4.41;86.31;101685.59;5061187;28;20113;-82
2023/01/10 09:33:29;;;;;;;10.53;1.93;;;;;;;4.40;86.57;101682.16;5045856;28;20040;-81
2023/01/10 09:35:58;;;;;;;11.00;1.80;;;;;;;4.42;86.58;101689.03;5058368;28;20029;-82
2023/01/10 09:38:23;;;;;;;13.82;2.45;;;;;;;4.44;86.67;101692.50;5067719;28;20435;-81
2023/01/10 09:40:54;;;;;;;12.07;2.00;;;;;;;4.48;86.30;101696.84;5062420;28;20055;-81
2023/01/10 09:43:57;;;;;;;15.02;3.45;;;;;;;4.49;86.31;101698.56;5061549;28;20035;-82
2023/01/10 09:47:06;;;;;;;9.77;1.87;;;;;;;4.52;86.34;101693.47;5067338;28;20025;-81
2023/01/10 09:50:01;;;;;;;13.37;2.00;;;;;;;4.52;85.99;101696.03;5068132;28;20086;-82
2023/01/10 09:52:31;;;;;;;10.33;2.03;;;;;;;4.54;85.81;101694.34;5053601;28;20094;-81
2023/01/10 09:55:15;;;;;;;10.00;2.00;;;;;;;4.55;86.25;101689.19;5063923;28;20028;-83
2023/01/10 09:57:40;;;;;;;8.33;1.60;;;;;;;4.59;86.04;101684.09;5067259;28;20032;-82
2023/01/10 10:00:08;;;;;;;14.43;2.23;;;;;;;4.59;86.16;101689.25;5062826;28;20025;-85
2023/01/10 10:02:44;;;;;;;9.10;1.80;;;;;;;4.61;86.05;101691.00;5048455;28;20482;-81
2023/01/10 10:05:24;;;;;;;7.63;1.37;;;;;;;4.63;86.37;101688.44;5068391;28;20113;-81
2023/01/10 10:07:53;;;;;;;10.80;1.60;;;;;;;4.63;86.30;101694.47;5073761;28;20105;-81
2023/01/10 10:10:48;;;;;;;9.20;1.60;;;;;;;4.66;86.33;101697.06;5063649;28;20112;-81
2023/01/10 10:13:41;;;;;;;9.13;1.60;;;;;;;4.70;86.47;101700.56;5065466;28;20035;-81
2023/01/10 10:16:29;;;;;;;9.03;1.83;;;;;;;4.75;85.77;101705.78;5064389;28;20043;-81
2023/01/10 10:19:00;;;;;;;8.40;1.40;;;;;;;4.79;85.92;101700.69;5060070;28;20042;-80
2023/01/10 10:21:40;;;;;;;8.75;1.55;;;;;;;4.82;85.94;101685.25;5060222;28;20028;-81
2023/01/10 10:24:43;;;;;;;13.52;1.63;;;;;;;4.90;87.73;101676.72;5060025;28;20094;-80
2023/01/10 10:27:22;;;;;;;8.27;1.70;;;;;;;4.95;85.93;101667.34;5062897;28;20050;-81
2023/01/10 10:30:26;;;;;;;11.23;1.63;;;;;;;4.95;85.89;101657.88;5062875;28;20032;-81
2023/01/10 10:33:03;;;;;;;11.95;1.83;;;;;;;4.94;85.33;101661.34;5062474;28;20040;-80
2023/01/10 10:35:34;;;;;;;11.43;2.00;;;;;;;4.96;85.43;101667.34;5064190;28;20781;-81
2023/01/10 10:38:24;;;;;;;7.68;1.90;;;;;;;5.00;85.88;101657.94;5059441;28;20035;-80
2023/01/10 10:40:52;;;;;;;10.77;1.98;;;;;;;5.00;85.26;101651.06;5063140;28;20031;-80
2023/01/10 10:43:31;;;;;;;10.80;1.92;;;;;;;5.05;85.90;101650.25;5060994;28;20071;-80
2023/01/10 10:46:04;;;;;;;8.68;1.65;;;;;;;5.08;85.58;101642.56;5062185;28;20123;-80
2023/01/10 10:48:51;;;;;;;12.10;2.17;;;;;;;5.09;85.67;101639.13;5069547;28;20033;-80
2023/01/10 10:51:24;;;;;;;10.98;1.90;;;;;;;5.11;85.39;101629.69;5065608;28;20063;-80
2023/01/10 10:53:50;;;;;;;9.10;1.75;;;;;;;5.11;85.38;101629.69;5072477;28;20060;-81
2023/01/10 10:56:19;;;;;;;11.53;2.17;;;;;;;5.12;85.43;101629.69;5072663;28;20087;-81
2023/01/10 10:58:48;;;;;;;11.98;2.72;;;;;;;5.12;85.26;101621.97;5069450;28;20490;-80
2023/01/10 11:01:15;;;;;;;9.57;2.10;;;;;;;5.14;85.67;101624.53;5075610;28;20020;-80
2023/01/10 11:03:48;;;;;;;11.85;2.55;;;;;;;5.14;85.23;101615.09;5071458;28;20048;-79
2023/01/10 11:06:15;;;;;;;11.27;2.17;;;;;;;5.18;85.94;101621.13;5073196;28;20024;-79
2023/01/10 11:08:44;;;;;;;8.95;1.75;;;;;;;5.20;85.49;101611.69;5071926;28;20024;-79
2023/01/10 11:11:18;;;;;;;10.50;2.03;;;;;;;5.22;85.59;101615.16;5071387;28;20036;-80
2023/01/10 11:13:52;;;;;;;14.63;2.40;;;;;;;5.20;85.13;101609.13;5073256;28;20028;-85
2023/01/10 11:16:33;;;;;;;9.00;1.88;;;;;;;5.26;85.23;101606.63;5069456;28;20060;-81
2023/01/10 11:19:22;;;;;;;12.35;3.03;;;;;;;5.24;85.41;101603.16;5071165;28;20510;-82
2023/01/10 11:22:02;;;;;;;11.80;2.25;;;;;;;5.30;85.53;101599.75;5069256;28;20024;-81
2023/01/10 11:24:35;;;;;;;14.50;2.80;;;;;;;5.29;84.76;101596.31;5058681;28;20032;-81
2023/01/10 11:27:14;;;;;;;13.77;2.15;;;;;;;5.32;85.11;101592.88;5079900;28;20498;-81
2023/01/10 11:29:46;;;;;;;10.40;2.13;;;;;;;5.32;85.24;101593.75;5077088;28;20024;-81
2023/01/10 11:32:15;;;;;;;15.38;2.47;;;;;;;5.34;84.92;101600.63;5074404;28;20039;-80
2023/01/10 11:34:57;;;;;;;15.07;2.75;;;;;;;5.37;85.17;101593.81;5066978;28;20043;-80
2023/01/10 11:37:27;;;;;;;;;;;;;;;5.42;85.21;101593.84;5075591;28;20036;-83
2023/01/10 11:40:09;;;;;;;13.85;2.35;;;;;;;5.39;84.89;101584.31;5072253;28;20723;-80
2023/01/10 11:42:34;;;;;;;12.48;2.47;;;;;;;5.40;85.15;101586.06;5082129;28;20027;-81
2023/01/10 11:45:22;;;;;;;11.60;2.30;;;;;;;5.44;85.36;101576.66;5053837;28;20036;-81
2023/01/10 11:47:53;;;;;;;10.60;2.65;;;;;;;5.43;84.72;101577.50;5073743;28;20039;-82